Time;durP1;ratioP1;P1;durP2;ratioP2;P2;SDS_P1;SDS_P2;PMS_P1;PMS_P2;Temp;Humidity;BMP_temperature;BMP_pressure;BME280_temperature;BME280_humidity;BME280_pressure;Samples;Min_cycle;Max_cycle;Signal;HPM_P1;HPM_P2
2021/07/06 00:01:53;;;;;;;2.83;2.60;;;17.60;99.90;;;;;;5059503;28;20479;-57
2021/07/06 00:04:19;;;;;;;3.10;2.57;;;17.50;99.90;;;;;;5065130;28;20613;-57
2021/07/06 00:06:45;;;;;;;3.07;2.87;;;17.40;99.90;;;;;;5066468;28;20194;-57
2021/07/06 00:09:11;;;;;;;2.95;2.55;;;17.70;99.90;;;;;;5059478;28;20197;-58
2021/07/06 00:11:37;;;;;;;3.28;2.65;;;17.40;99.90;;;;;;5056275;28;20544;-57
2021/07/06 00:14:03;;;;;;;3.20;2.90;;;17.50;99.90;;;;;;5055184;28;20180;-58
2021/07/06 00:16:29;;;;;;;3.17;2.87;;;17.40;99.90;;;;;;5061734;28;20258;-56
2021/07/06 00:18:54;;;;;;;2.60;2.40;;;17.50;99.90;;;;;;5058782;28;20455;-58
2021/07/06 00:21:20;;;;;;;2.67;2.47;;;17.20;99.90;;;;;;5056545;28;20175;-58
2021/07/06 00:23:46;;;;;;;4.17;2.53;;;17.50;99.90;;;;;;5059159;28;20712;-57
2021/07/06 00:26:12;;;;;;;2.80;2.60;;;17.50;99.90;;;;;;5061755;28;20181;-57
2021/07/06 00:28:38;;;;;;;2.93;2.60;;;17.50;99.90;;;;;;5061511;28;21050;-57
2021/07/06 00:31:04;;;;;;;3.00;2.80;;;17.60;99.90;;;;;;5060836;28;20185;-57
2021/07/06 00:33:30;;;;;;;2.47;2.30;;;17.50;99.90;;;;;;5065546;28;20431;-58
2021/07/06 00:36:01;;;;;;;3.15;2.83;;;17.40;99.90;;;;;;5063680;28;20320;-57
2021/07/06 00:38:27;;;;;;;3.30;2.42;;;17.30;99.90;;;;;;5048348;28;20263;-58
2021/07/06 00:40:54;;;;;;;2.80;2.30;;;17.50;99.90;;;;;;5052551;28;20196;-58
2021/07/06 00:43:20;;;;;;;2.58;2.30;;;17.50;99.90;;;;;;5053603;28;20188;-57
2021/07/06 00:45:46;;;;;;;2.70;2.50;;;17.30;99.90;;;;;;5062339;28;20182;-57
2021/07/06 00:48:12;;;;;;;2.67;2.47;;;17.40;99.90;;;;;;5060105;28;20541;-57
2021/07/06 00:50:38;;;;;;;2.80;2.50;;;17.50;99.90;;;;;;5064253;28;20276;-58
2021/07/06 00:53:03;;;;;;;3.10;2.80;;;17.50;99.90;;;;;;5060113;28;20174;-58
2021/07/06 00:55:30;;;;;;;2.80;2.60;;;17.60;99.90;;;;;;5066615;28;20204;-57
2021/07/06 00:57:56;;;;;;;2.65;2.45;;;17.50;99.90;;;;;;5057005;28;20209;-56
2021/07/06 01:00:25;;;;;;;2.58;2.38;;;17.50;99.90;;;;;;5068272;28;20173;-58
2021/07/06 01:02:52;;;;;;;3.00;2.70;;;17.60;99.90;;;;;;5063502;28;20189;-57
2021/07/06 01:05:20;;;;;;;2.58;2.38;;;17.60;99.90;;;;;;5067572;28;20654;-58
2021/07/06 01:07:47;;;;;;;2.80;2.60;;;17.80;99.90;;;;;;5064715;28;20184;-56
2021/07/06 01:10:13;;;;;;;2.80;2.60;;;17.60;99.90;;;;;;5068387;28;20291;-57
2021/07/06 01:12:40;;;;;;;4.15;2.80;;;17.80;99.90;;;;;;5064904;28;20246;-57
2021/07/06 01:15:13;;;;;;;2.60;2.40;;;17.80;99.90;;;;;;5067596;28;20684;-55
2021/07/06 01:17:39;;;;;;;3.38;2.38;;;17.70;99.90;;;;;;5059079;28;20205;-56
2021/07/06 01:20:10;;;;;;;2.45;2.25;;;17.80;99.90;;;;;;5064105;28;20203;-57
2021/07/06 01:22:36;;;;;;;2.85;2.65;;;17.90;99.90;;;;;;5065445;28;20645;-56
2021/07/06 01:25:05;;;;;;;3.30;2.90;;;17.90;99.90;;;;;;5069800;28;20268;-58
2021/07/06 01:27:31;;;;;;;3.90;2.80;;;17.90;99.90;;;;;;5068750;28;20440;-57
2021/07/06 01:29:57;;;;;;;3.10;2.67;;;17.90;99.90;;;;;;5066456;28;20689;-57
2021/07/06 01:32:23;;;;;;;4.00;2.57;;;17.60;99.90;;;;;;5065292;28;20185;-58
2021/07/06 01:34:49;;;;;;;2.63;2.40;;;17.80;99.90;;;;;;5066518;28;20246;-58
2021/07/06 01:37:19;;;;;;;2.70;2.50;;;17.80;99.90;;;;;;5065165;28;20456;-58
2021/07/06 01:39:46;;;;;;;3.90;3.45;;;17.80;99.90;;;;;;5066463;28;20232;-56
2021/07/06 01:42:19;;;;;;;2.83;2.63;;;17.80;99.90;;;;;;5064894;28;20209;-57
2021/07/06 01:44:47;;;;;;;2.80;2.60;;;17.80;99.90;;;;;;5058826;28;20176;-57
2021/07/06 01:47:13;;;;;;;2.58;2.38;;;17.70;99.90;;;;;;5066662;28;20418;-58
2021/07/06 01:49:39;;;;;;;2.65;2.35;;;17.70;99.90;;;;;;5062666;28;20631;-57
2021/07/06 01:52:05;;;;;;;2.90;2.60;;;17.70;99.90;;;;;;5053504;28;20190;-58
2021/07/06 01:54:31;;;;;;;2.92;2.72;;;17.60;99.90;;;;;;5066028;28;20258;-58
2021/07/06 01:56:56;;;;;;;3.23;2.73;;;17.70;99.90;;;;;;5064459;28;20213;-59
2021/07/06 01:59:22;;;;;;;5.50;2.40;;;17.70;99.90;;;;;;5064543;28;20209;-58
2021/07/06 02:01:47;;;;;;;3.33;3.00;;;17.70;99.90;;;;;;5063305;28;20181;-59
2021/07/06 02:04:14;;;;;;;4.50;2.53;;;17.50;99.90;;;;;;5066394;28;20181;-58
2021/07/06 02:06:41;;;;;;;4.60;2.80;;;17.40;99.90;;;;;;5067080;28;20650;-58
2021/07/06 02:09:06;;;;;;;3.00;2.80;;;17.50;99.90;;;;;;5061269;28;20201;-59
2021/07/06 02:11:32;;;;;;;2.60;2.40;;;17.60;99.90;;;;;;5056369;28;20527;-58
2021/07/06 02:14:00;;;;;;;3.20;2.93;;;17.40;99.90;;;;;;5066447;28;20184;-57
2021/07/06 02:16:25;;;;;;;4.07;2.90;;;17.40;99.90;;;;;;5061860;28;20236;-58
2021/07/06 02:18:51;;;;;;;3.67;2.77;;;17.50;99.90;;;;;;5065180;28;20632;-57
2021/07/06 02:21:16;;;;;;;2.70;2.50;;;17.40;99.90;;;;;;5063660;28;20209;-58
2021/07/06 02:23:45;;;;;;;3.87;3.00;;;17.40;99.90;;;;;;5065887;28;20184;-58
2021/07/06 02:26:12;;;;;;;3.20;2.83;;;17.50;99.90;;;;;;5066384;28;20189;-58
2021/07/06 02:28:37;;;;;;;3.20;2.90;;;17.30;99.90;;;;;;5059387;28;20227;-57
2021/07/06 02:31:04;;;;;;;3.60;2.80;;;17.40;99.90;;;;;;5067599;28;20662;-57
2021/07/06 02:33:35;;;;;;;3.85;2.85;;;17.30;99.90;;;;;;5068710;28;20185;-57
2021/07/06 02:36:06;;;;;;;2.80;2.60;;;17.50;99.90;;;;;;5062900;28;20209;-58
2021/07/06 02:38:32;;;;;;;2.80;2.60;;;17.30;99.90;;;;;;5058180;28;20217;-58
2021/07/06 02:40:58;;;;;;;4.33;2.97;;;17.20;99.90;;;;;;5065899;28;20189;-58
2021/07/06 02:43:24;;;;;;;2.70;2.50;;;16.90;99.90;;;;;;5066940;28;20470;-59
2021/07/06 02:45:49;;;;;;;2.67;2.47;;;17.20;99.90;;;;;;5066269;28;20576;-58
2021/07/06 02:48:15;;;;;;;3.17;2.90;;;17.20;99.90;;;;;;5058756;28;20455;-58
2021/07/06 02:50:41;;;;;;;3.22;2.85;;;17.10;99.90;;;;;;5063200;28;20625;-57
2021/07/06 02:53:08;;;;;;;3.10;2.80;;;17.00;99.90;;;;;;5058552;28;20192;-56
2021/07/06 02:55:34;;;;;;;3.00;2.80;;;17.10;99.90;;;;;;5058516;28;20534;-56
2021/07/06 02:58:00;;;;;;;3.30;3.00;;;16.40;99.90;;;;;;5064156;28;20316;-56
2021/07/06 03:00:29;;;;;;;3.43;2.97;;;16.90;99.90;;;;;;5056491;28;20181;-55
2021/07/06 03:02:59;;;;;;;3.30;3.10;;;16.80;99.90;;;;;;5060743;28;20180;-56
2021/07/06 03:05:27;;;;;;;2.78;2.58;;;16.60;99.90;;;;;;5064635;28;20187;-55
2021/07/06 03:07:54;;;;;;;3.03;2.83;;;16.90;99.90;;;;;;5060125;28;20180;-55
2021/07/06 03:10:28;;;;;;;3.30;3.00;;;16.80;99.90;;;;;;5063429;28;20275;-54
2021/07/06 03:12:54;;;;;;;4.10;2.60;;;16.90;99.90;;;;;;5061329;28;20172;-55
2021/07/06 03:15:23;;;;;;;4.07;2.97;;;17.00;99.90;;;;;;5066991;28;20191;-55
2021/07/06 03:17:49;;;;;;;3.00;2.80;;;16.80;99.90;;;;;;5066098;28;20447;-55
2021/07/06 03:20:18;;;;;;;3.30;3.00;;;16.90;99.90;;;;;;5056398;28;20185;-56
2021/07/06 03:22:45;;;;;;;3.00;2.80;;;16.90;99.90;;;;;;5060615;28;20177;-55
2021/07/06 03:25:13;;;;;;;3.13;2.83;;;17.10;99.90;;;;;;5060970;28;20267;-56
2021/07/06 03:27:39;;;;;;;4.38;2.85;;;17.00;99.90;;;;;;5064382;28;20184;-55
2021/07/06 03:30:10;;;;;;;3.10;2.90;;;17.10;99.90;;;;;;5064140;28;20565;-55
2021/07/06 03:32:36;;;;;;;3.03;2.83;;;17.10;99.90;;;;;;5057715;28;20197;-54
2021/07/06 03:35:04;;;;;;;3.97;3.67;;;16.80;99.90;;;;;;5068112;28;20322;-55
2021/07/06 03:37:29;;;;;;;2.88;2.60;;;16.80;99.90;;;;;;5065778;28;20206;-56
2021/07/06 03:39:55;;;;;;;3.40;3.10;;;16.20;99.90;;;;;;5061186;28;20208;-53
2021/07/06 03:42:21;;;;;;;2.97;2.67;;;16.70;99.90;;;;;;5056348;28;20745;-55
2021/07/06 03:44:46;;;;;;;3.00;2.80;;;16.90;99.90;;;;;;5056294;28;20189;-56
2021/07/06 03:47:12;;;;;;;3.13;2.90;;;16.90;99.90;;;;;;5053812;28;20247;-55
2021/07/06 03:49:37;;;;;;;3.60;3.30;;;17.10;99.90;;;;;;5066632;28;20219;-54
2021/07/06 03:52:04;;;;;;;2.87;2.67;;;16.90;99.90;;;;;;5065165;28;20255;-54
2021/07/06 03:54:29;;;;;;;3.55;2.60;;;16.80;99.90;;;;;;5072286;28;20312;-56
2021/07/06 03:56:56;;;;;;;3.20;2.90;;;16.90;99.90;;;;;;5058847;28;20691;-54
2021/07/06 03:59:22;;;;;;;3.30;3.00;;;16.90;99.90;;;;;;5058197;28;20201;-55
2021/07/06 04:01:49;;;;;;;3.03;2.80;;;16.80;99.90;;;;;;5055327;28;20205;-56
2021/07/06 04:04:15;;;;;;;3.63;3.33;;;16.80;99.90;;;;;;5067404;28;20184;-56
2021/07/06 04:06:41;;;;;;;3.80;2.50;;;17.10;99.90;;;;;;5054663;28;20181;-54
2021/07/06 04:09:07;;;;;;;3.80;3.10;;;17.10;99.90;;;;;;5056428;28;20456;-55
2021/07/06 04:11:32;;;;;;;3.67;2.77;;;17.10;99.90;;;;;;5061847;28;20315;-55
2021/07/06 04:13:58;;;;;;;3.73;2.67;;;17.10;99.90;;;;;;5058720;28;20268;-56
2021/07/06 04:16:23;;;;;;;5.17;2.93;;;17.50;99.90;;;;;;5060225;28;20206;-57
2021/07/06 04:18:49;;;;;;;2.97;2.77;;;17.20;99.90;;;;;;5059431;28;20196;-58
2021/07/06 04:21:15;;;;;;;4.33;3.17;;;17.40;99.90;;;;;;5052997;28;20547;-58
2021/07/06 04:23:41;;;;;;;2.92;2.63;;;17.20;99.90;;;;;;5051807;28;20268;-57
2021/07/06 04:26:07;;;;;;;4.40;3.03;;;17.40;99.90;;;;;;5057619;28;20267;-57
2021/07/06 04:28:34;;;;;;;3.63;3.33;;;17.30;99.90;;;;;;5057598;28;20205;-58
2021/07/06 04:31:00;;;;;;;3.25;2.95;;;17.50;99.90;;;;;;5059473;28;20186;-57
2021/07/06 04:33:26;;;;;;;3.00;2.70;;;17.60;99.90;;;;;;5056789;28;20196;-57
2021/07/06 04:35:52;;;;;;;4.78;3.30;;;17.50;99.90;;;;;;5059834;28;20185;-58
2021/07/06 04:38:18;;;;;;;3.15;2.70;;;17.70;99.90;;;;;;5055435;28;20682;-56
2021/07/06 04:40:45;;;;;;;3.30;3.00;;;17.80;99.90;;;;;;5060233;28;20178;-57
2021/07/06 04:43:12;;;;;;;3.13;2.70;;;17.80;99.90;;;;;;5065396;28;20251;-57
2021/07/06 04:45:38;;;;;;;2.72;2.53;;;17.90;99.90;;;;;;5059816;28;20680;-59
2021/07/06 04:48:06;;;;;;;3.35;2.70;;;18.10;99.90;;;;;;5062274;28;20267;-56
2021/07/06 04:50:36;;;;;;;3.63;3.33;;;18.00;99.90;;;;;;5059008;28;20196;-58
2021/07/06 04:53:02;;;;;;;3.67;3.35;;;18.10;99.90;;;;;;5057200;28;20185;-57
2021/07/06 04:55:28;;;;;;;3.35;3.05;;;18.20;99.90;;;;;;5063346;28;20194;-55
2021/07/06 04:57:53;;;;;;;4.33;3.23;;;18.40;99.90;;;;;;5063568;28;20205;-56
2021/07/06 05:00:19;;;;;;;6.50;3.90;;;18.50;99.90;;;;;;5061564;28;20223;-54
2021/07/06 05:02:46;;;;;;;4.40;4.00;;;18.60;99.90;;;;;;5056492;28;20817;-57
2021/07/06 05:05:12;;;;;;;3.95;3.67;;;18.80;99.90;;;;;;5062495;28;20173;-55
2021/07/06 05:07:38;;;;;;;4.25;2.65;;;18.90;99.90;;;;;;5059829;28;20180;-56
2021/07/06 05:10:06;;;;;;;3.45;3.25;;;19.20;99.90;;;;;;5057870;28;20307;-57
2021/07/06 05:12:32;;;;;;;3.47;3.17;;;19.30;99.90;;;;;;5054161;28;20221;-58
2021/07/06 05:14:57;;;;;;;3.10;2.80;;;19.50;99.90;;;;;;5055705;28;20217;-59
2021/07/06 05:17:23;;;;;;;4.70;3.03;;;19.50;99.90;;;;;;5060390;28;20204;-56
2021/07/06 05:19:49;;;;;;;3.30;3.00;;;19.50;99.90;;;;;;5067212;28;20211;-56
2021/07/06 05:22:15;;;;;;;3.87;3.50;;;19.50;99.90;;;;;;5065550;28;20180;-56
2021/07/06 05:24:41;;;;;;;3.83;3.53;;;19.40;99.90;;;;;;5060304;28;20189;-56
2021/07/06 05:27:06;;;;;;;4.25;3.40;;;19.30;99.90;;;;;;5057565;28;20978;-56
2021/07/06 05:29:32;;;;;;;4.07;3.37;;;19.40;99.90;;;;;;5059862;28;20200;-56
2021/07/06 05:31:58;;;;;;;3.30;3.03;;;19.40;99.90;;;;;;5062311;28;20260;-56
2021/07/06 05:34:23;;;;;;;5.80;3.80;;;19.50;99.90;;;;;;5060225;28;20674;-56
2021/07/06 05:36:50;;;;;;;4.60;3.00;;;19.50;99.90;;;;;;5061907;28;20208;-57
2021/07/06 05:39:16;;;;;;;3.75;3.00;;;19.50;99.90;;;;;;5057255;28;20204;-57
2021/07/06 05:41:42;;;;;;;3.83;3.30;;;19.50;99.90;;;;;;5066153;28;20268;-57
2021/07/06 05:44:08;;;;;;;4.07;3.13;;;19.60;99.90;;;;;;5060888;28;20580;-57
2021/07/06 05:46:34;;;;;;;3.17;2.90;;;19.60;99.90;;;;;;5063523;28;20284;-57
2021/07/06 05:49:00;;;;;;;3.83;3.53;;;19.60;99.90;;;;;;5066617;28;20264;-57
2021/07/06 05:51:26;;;;;;;3.80;3.42;;;19.80;99.90;;;;;;5059352;28;20526;-57
2021/07/06 05:53:52;;;;;;;4.57;4.17;;;19.90;99.90;;;;;;5067244;28;20696;-57
2021/07/06 05:56:19;;;;;;;3.70;2.80;;;20.00;99.90;;;;;;5058193;28;20454;-57
2021/07/06 05:58:45;;;;;;;3.38;2.40;;;20.00;99.90;;;;;;5062607;28;20200;-56
2021/07/06 06:01:11;;;;;;;3.40;2.80;;;20.10;99.90;;;;;;5063773;28;20188;-57
2021/07/06 06:03:36;;;;;;;5.00;2.33;;;20.20;99.90;;;;;;5059541;28;20193;-57
2021/07/06 06:06:02;;;;;;;3.67;2.50;;;20.40;99.90;;;;;;5063466;28;20866;-57
2021/07/06 06:08:28;;;;;;;6.20;2.53;;;20.60;99.90;;;;;;5058784;28;20670;-57
2021/07/06 06:10:54;;;;;;;3.10;2.60;;;20.60;99.90;;;;;;5051532;28;20536;-57
2021/07/06 06:13:20;;;;;;;2.80;2.50;;;20.70;99.90;;;;;;5060338;28;20444;-58
2021/07/06 06:15:46;;;;;;;2.88;2.65;;;20.80;99.90;;;;;;5051639;28;20182;-57
2021/07/06 06:18:11;;;;;;;3.23;2.93;;;21.00;99.90;;;;;;5059988;28;20262;-58
2021/07/06 06:20:37;;;;;;;2.40;2.20;;;21.10;99.90;;;;;;5054789;28;20303;-58
2021/07/06 06:23:04;;;;;;;2.83;2.50;;;21.30;99.90;;;;;;5057426;28;20502;-58
2021/07/06 06:25:30;;;;;;;2.75;2.35;;;21.40;99.90;;;;;;5053398;28;20184;-57
2021/07/06 06:27:56;;;;;;;2.47;2.00;;;21.60;99.90;;;;;;5061250;28;20266;-57
2021/07/06 06:30:22;;;;;;;2.93;2.47;;;21.70;99.90;;;;;;5062212;28;20678;-59
2021/07/06 06:32:48;;;;;;;1.95;1.85;;;21.80;99.90;;;;;;5058371;28;20564;-59
2021/07/06 06:35:14;;;;;;;3.17;2.03;;;22.00;99.90;;;;;;5057851;28;20238;-59
2021/07/06 06:37:39;;;;;;;3.90;1.87;;;22.10;99.90;;;;;;5054980;28;20205;-58
2021/07/06 06:40:07;;;;;;;4.20;3.83;;;22.20;99.90;;;;;;5055923;28;20197;-59
2021/07/06 06:42:33;;;;;;;2.70;2.50;;;22.50;99.90;;;;;;5053336;28;20190;-59
2021/07/06 06:44:58;;;;;;;2.27;1.57;;;22.50;99.90;;;;;;5058586;28;20244;-58
2021/07/06 06:47:24;;;;;;;2.90;1.70;;;22.70;99.90;;;;;;5051298;28;20280;-59
2021/07/06 06:49:50;;;;;;;1.87;1.67;;;23.00;99.90;;;;;;5055831;28;20701;-59
2021/07/06 06:52:15;;;;;;;1.40;1.30;;;23.20;99.90;;;;;;5060078;28;20263;-57
2021/07/06 06:54:41;;;;;;;1.43;1.33;;;23.50;99.60;;;;;;5059021;28;20756;-57
2021/07/06 06:57:07;;;;;;;1.90;1.80;;;23.70;98.90;;;;;;5057499;28;20262;-57
2021/07/06 06:59:32;;;;;;;3.20;1.90;;;24.00;98.90;;;;;;5064163;28;20208;-58
2021/07/06 07:02:16;;;;;;;1.33;1.20;;;23.90;98.80;;;;;;5058115;28;20192;-58
2021/07/06 07:04:43;;;;;;;1.83;1.43;;;24.30;97.10;;;;;;5061393;28;20203;-59
2021/07/06 07:07:09;;;;;;;1.40;1.30;;;25.20;96.20;;;;;;5059147;28;20493;-60
2021/07/06 07:09:34;;;;;;;2.03;1.33;;;26.60;93.90;;;;;;5058923;28;20454;-57
2021/07/06 07:12:00;;;;;;;1.30;1.20;;;28.40;90.50;;;;;;5054102;28;20245;-58
2021/07/06 07:14:26;;;;;;;3.30;1.40;;;30.40;82.80;;;;;;5063637;28;20671;-56
2021/07/06 07:16:51;;;;;;;1.20;1.00;;;31.90;74.00;;;;;;5052067;28;20211;-57
2021/07/06 07:19:17;;;;;;;1.53;1.43;;;31.90;71.50;;;;;;5049281;28;20209;-56
2021/07/06 07:21:43;;;;;;;1.37;1.27;;;31.10;72.40;;;;;;5058990;28;20184;-56
2021/07/06 07:24:08;;;;;;;2.70;1.10;;;30.70;74.60;;;;;;5054455;28;20188;-57
2021/07/06 07:26:34;;;;;;;1.50;1.40;;;30.20;75.30;;;;;;5064144;28;20653;-57
2021/07/06 07:29:02;;;;;;;2.13;1.33;;;30.10;76.70;;;;;;5055907;28;20622;-57
2021/07/06 07:31:28;;;;;;;1.70;1.47;;;30.10;75.90;;;;;;5053421;28;20177;-56
2021/07/06 07:33:54;;;;;;;2.13;1.50;;;30.30;75.80;;;;;;5059431;28;20820;-55
2021/07/06 07:36:19;;;;;;;1.40;1.30;;;31.10;74.10;;;;;;5059669;28;20464;-56
2021/07/06 07:38:48;;;;;;;2.43;1.70;;;32.20;70.50;;;;;;5056542;28;20212;-57
2021/07/06 07:41:13;;;;;;;2.77;1.33;;;33.40;67.00;;;;;;5058921;28;20522;-56
2021/07/06 07:43:39;;;;;;;2.30;1.37;;;33.20;65.60;;;;;;5052899;28;20450;-56
2021/07/06 07:46:05;;;;;;;2.73;2.13;;;34.70;63.10;;;;;;5050906;28;20185;-56
2021/07/06 07:48:31;;;;;;;2.37;1.90;;;34.70;61.70;;;;;;5051468;28;20190;-57
2021/07/06 07:50:57;;;;;;;2.57;1.40;;;35.50;58.50;;;;;;5052375;28;20224;-57
2021/07/06 07:53:23;;;;;;;2.10;1.50;;;36.00;56.40;;;;;;5061542;28;20439;-57
2021/07/06 07:55:51;;;;;;;1.73;1.63;;;35.30;56.20;;;;;;5059121;28;20702;-56
2021/07/06 07:58:16;;;;;;;1.87;1.60;;;34.80;56.70;;;;;;5059391;28;20696;-57
2021/07/06 08:00:42;;;;;;;2.13;1.30;;;34.00;57.50;;;;;;5054563;28;20440;-57
2021/07/06 08:03:08;;;;;;;1.47;1.33;;;33.20;59.10;;;;;;5060565;28;20690;-58
2021/07/06 08:05:33;;;;;;;1.27;1.17;;;32.50;60.20;;;;;;5065608;28;20183;-58
2021/07/06 08:07:59;;;;;;;3.60;1.60;;;31.70;62.70;;;;;;5061375;28;20200;-58
2021/07/06 08:10:25;;;;;;;4.23;3.80;;;30.80;65.90;;;;;;5060157;28;20192;-58
2021/07/06 08:12:50;;;;;;;2.10;1.80;;;30.30;68.50;;;;;;5061602;28;20176;-58
2021/07/06 08:15:16;;;;;;;1.20;1.10;;;30.00;69.90;;;;;;5058923;28;20178;-56
2021/07/06 08:17:43;;;;;;;2.07;1.87;;;29.60;71.50;;;;;;5053224;28;20201;-56
2021/07/06 08:20:09;;;;;;;2.80;1.70;;;30.10;71.90;;;;;;5056821;28;20583;-56
2021/07/06 08:22:35;;;;;;;2.27;1.50;;;31.50;69.20;;;;;;5056155;28;20526;-58
2021/07/06 08:25:00;;;;;;;1.57;1.47;;;32.90;63.20;;;;;;5057980;28;20626;-58
2021/07/06 08:27:26;;;;;;;1.20;1.10;;;33.90;60.40;;;;;;5049689;28;20223;-58
2021/07/06 08:29:52;;;;;;;3.80;2.20;;;34.80;57.50;;;;;;5054005;28;20201;-58
2021/07/06 08:32:18;;;;;;;1.50;1.23;;;35.20;56.80;;;;;;5051814;28;20619;-56
2021/07/06 08:34:44;;;;;;;1.93;1.50;;;34.80;56.00;;;;;;5056456;28;20466;-56
2021/07/06 08:37:09;;;;;;;1.37;1.27;;;35.40;55.30;;;;;;5054641;28;20212;-56
2021/07/06 08:39:35;;;;;;;2.50;1.50;;;36.60;53.80;;;;;;5059585;28;20197;-58
2021/07/06 08:42:01;;;;;;;1.93;1.10;;;37.60;51.60;;;;;;5053593;28;20180;-56
2021/07/06 08:44:27;;;;;;;1.70;1.60;;;37.30;50.40;;;;;;5059426;28;20668;-57
2021/07/06 08:46:55;;;;;;;1.50;1.40;;;36.80;51.50;;;;;;5058041;28;20440;-56
2021/07/06 08:49:22;;;;;;;1.37;1.27;;;37.00;50.60;;;;;;5059545;28;20209;-57
2021/07/06 08:51:51;;;;;;;2.40;1.90;;;37.20;49.80;;;;;;5053798;28;20524;-59
2021/07/06 08:54:18;;;;;;;2.60;1.47;;;36.50;51.20;;;;;;5062954;28;20434;-58
2021/07/06 08:56:44;;;;;;;1.47;1.30;;;36.10;52.50;;;;;;5064111;28;20510;-58
2021/07/06 08:59:10;;;;;;;1.70;1.50;;;35.90;52.60;;;;;;5060313;28;20463;-57
2021/07/06 09:01:35;;;;;;;1.87;1.33;;;35.40;53.00;;;;;;5052629;28;20239;-58
2021/07/06 09:04:03;;;;;;;1.47;1.37;;;35.20;53.70;;;;;;5052389;28;20174;-57
2021/07/06 09:06:31;;;;;;;3.20;2.00;;;35.90;53.20;;;;;;5051683;28;20221;-59
2021/07/06 09:09:20;;;;;;;1.53;1.43;;;36.20;52.10;;;;;;5061586;28;20463;-58
2021/07/06 09:11:47;;;;;;;1.50;1.40;;;35.20;52.70;;;;;;5055258;28;20444;-56
2021/07/06 09:14:13;;;;;;;1.43;1.33;;;33.90;54.80;;;;;;5057881;28;20474;-57
2021/07/06 09:16:40;;;;;;;3.77;1.53;;;33.10;56.40;;;;;;5061004;28;20459;-57
2021/07/06 09:19:18;;;;;;;1.70;1.60;;;32.50;57.50;;;;;;5054320;28;21035;-55
2021/07/06 09:21:45;;;;;;;8.10;7.27;;;31.80;59.60;;;;;;5055410;28;20433;-59
2021/07/06 09:24:24;;;;;;;3.90;3.60;;;31.40;61.50;;;;;;5061474;28;20484;-57
2021/07/06 09:26:51;;;;;;;2.00;1.80;;;30.90;63.80;;;;;;5060099;28;20435;-57
2021/07/06 09:29:22;;;;;;;1.93;1.70;;;30.40;65.90;;;;;;5057817;28;20473;-57
2021/07/06 09:31:48;;;;;;;4.87;2.20;;;30.00;67.90;;;;;;5065663;28;20451;-57
2021/07/06 09:34:13;;;;;;;4.80;2.30;;;29.20;73.10;;;;;;5061899;28;20446;-57
2021/07/06 09:36:47;;;;;;;3.07;2.10;;;27.90;78.40;;;;;;5054928;28;20673;-56
2021/07/06 09:39:17;;;;;;;2.20;2.00;;;26.80;84.00;;;;;;5055295;28;20308;-56
2021/07/06 09:42:12;;;;;;;4.47;2.60;;;26.00;88.90;;;;;;5058710;28;20430;-56
2021/07/06 09:44:41;;;;;;;3.37;2.43;;;25.60;90.40;;;;;;5060044;28;20435;-57
2021/07/06 09:47:14;;;;;;;3.40;2.27;;;25.50;91.40;;;;;;5057781;28;21657;-58
2021/07/06 09:49:53;;;;;;;1.53;1.43;;;25.20;91.70;;;;;;5064201;28;20460;-58
2021/07/06 09:52:21;;;;;;;1.47;1.37;;;24.80;92.50;;;;;;5051554;28;20871;-59
2021/07/06 09:54:49;;;;;;;3.20;1.10;;;24.80;92.90;;;;;;5057527;28;20438;-58
2021/07/06 09:57:23;;;;;;;1.20;1.10;;;24.70;93.10;;;;;;5061569;28;20606;-59
2021/07/06 09:59:56;;;;;;;3.30;1.00;;;24.70;93.00;;;;;;5055283;28;20481;-58
2021/07/06 10:02:23;;;;;;;1.33;0.80;;;24.60;93.10;;;;;;5059415;28;20443;-59
2021/07/06 10:04:52;;;;;;;1.67;1.30;;;24.80;92.80;;;;;;5059277;28;20512;-57
2021/07/06 10:07:22;;;;;;;1.50;1.30;;;25.10;92.30;;;;;;5066419;28;20942;-58
2021/07/06 10:09:49;;;;;;;1.97;0.77;;;25.50;91.30;;;;;;5065081;28;20457;-57
2021/07/06 10:12:19;;;;;;;2.00;1.90;;;25.90;90.50;;;;;;5061961;28;20488;-57
2021/07/06 10:14:46;;;;;;;0.97;0.87;;;25.70;90.20;;;;;;5065057;28;20445;-57
2021/07/06 10:17:13;;;;;;;1.73;1.00;;;26.00;90.40;;;;;;5065763;28;20462;-57
2021/07/06 10:19:40;;;;;;;3.00;1.03;;;26.20;88.90;;;;;;5062079;28;20468;-57
2021/07/06 10:22:07;;;;;;;3.40;3.10;;;25.80;90.20;;;;;;5052848;28;20439;-56
2021/07/06 10:24:41;;;;;;;1.40;1.30;;;25.90;90.20;;;;;;5051809;28;20464;-57
2021/07/06 10:27:12;;;;;;;1.20;1.10;;;26.00;90.20;;;;;;5057746;28;20445;-58
2021/07/06 10:29:41;;;;;;;1.27;1.17;;;26.00;89.70;;;;;;5061396;28;20466;-57
2021/07/06 10:32:07;;;;;;;1.13;1.03;;;26.10;89.80;;;;;;5053985;28;20475;-57
2021/07/06 10:34:43;;;;;;;1.27;1.13;;;26.10;89.40;;;;;;5049168;28;21089;-57
2021/07/06 10:37:29;;;;;;;2.80;0.90;;;26.30;89.80;;;;;;5057823;28;20505;-57
2021/07/06 10:40:11;;;;;;;1.33;0.97;;;26.40;87.50;;;;;;5059476;28;20540;-57
2021/07/06 10:42:41;;;;;;;1.43;1.10;;;26.40;89.70;;;;;;5062825;28;20435;-57
2021/07/06 10:45:17;;;;;;;1.20;1.10;;;26.50;89.60;;;;;;5052208;28;20442;-57
2021/07/06 10:47:49;;;;;;;1.00;0.90;;;26.40;90.20;;;;;;5050806;28;21151;-57
2021/07/06 10:50:30;;;;;;;0.80;0.80;;;26.50;90.10;;;;;;5062565;28;20469;-57
2021/07/06 10:53:24;;;;;;;1.37;1.00;;;26.30;90.10;;;;;;5054937;28;20451;-57
2021/07/06 10:56:05;;;;;;;1.67;1.57;;;26.30;90.40;;;;;;5060565;28;20961;-56
2021/07/06 10:58:50;;;;;;;3.10;2.40;;;26.10;91.00;;;;;;5058275;28;20462;-57
2021/07/06 11:01:38;;;;;;;1.13;1.03;;;26.10;92.20;;;;;;5058358;28;20611;-57
2021/07/06 11:04:05;;;;;;;6.47;5.90;;;26.00;91.90;;;;;;5055005;28;20442;-58
2021/07/06 11:07:00;;;;;;;4.30;3.40;;;26.10;91.80;;;;;;5063837;28;20450;-58
2021/07/06 11:09:25;;;;;;;1.57;1.47;;;26.40;91.30;;;;;;5048689;28;20834;-58
2021/07/06 11:11:51;;;;;;;1.73;1.20;;;26.10;91.70;;;;;;5054115;28;20449;-56
2021/07/06 11:14:27;;;;;;;0.87;0.80;;;26.30;91.00;;;;;;5059324;28;20258;-58
2021/07/06 11:17:01;;;;;;;1.73;1.63;;;26.00;90.40;;;;;;5056269;28;20212;-59
2021/07/06 11:19:37;;;;;;;3.03;2.40;;;26.10;91.10;;;;;;5063979;28;20453;-59
2021/07/06 11:22:17;;;;;;;1.33;1.10;;;26.50;90.00;;;;;;5056512;28;20442;-60
2021/07/06 11:24:48;;;;;;;0.97;0.80;;;26.50;88.40;;;;;;5060286;28;20492;-60
2021/07/06 11:27:54;;;;;;;1.63;1.10;;;27.00;87.40;;;;;;5061830;28;20449;-60
2021/07/06 11:30:30;;;;;;;1.43;1.33;;;27.50;85.40;;;;;;5059060;28;20445;-61
2021/07/06 11:33:05;;;;;;;2.77;1.00;;;27.90;84.00;;;;;;5062845;28;20443;-56
2021/07/06 11:35:33;;;;;;;1.30;1.10;;;27.70;84.20;;;;;;5063409;28;20533;-58
2021/07/06 11:38:02;;;;;;;2.23;0.90;;;27.40;84.40;;;;;;5061668;28;20522;-58
2021/07/06 11:40:27;;;;;;;0.97;0.87;;;27.00;85.40;;;;;;5058937;28;20428;-59
2021/07/06 11:42:53;;;;;;;2.07;1.13;;;26.80;86.40;;;;;;5059133;28;20446;-56
2021/07/06 11:45:23;;;;;;;1.37;0.80;;;26.80;86.70;;;;;;5061681;28;20186;-56
2021/07/06 11:48:01;;;;;;;1.60;1.30;;;26.90;86.80;;;;;;5064400;28;20188;-55
2021/07/06 11:50:27;;;;;;;1.60;1.27;;;26.60;88.40;;;;;;5058807;28;20448;-56
2021/07/06 11:52:53;;;;;;;0.97;0.90;;;26.40;88.10;;;;;;5055366;28;20454;-55
2021/07/06 11:55:27;;;;;;;1.17;0.90;;;26.30;89.10;;;;;;5061331;28;20439;-58
2021/07/06 11:57:54;;;;;;;1.13;0.90;;;26.00;89.20;;;;;;5050426;28;20204;-57
2021/07/06 12:00:25;;;;;;;0.80;0.80;;;25.50;90.60;;;;;;5057463;28;20474;-59
2021/07/06 12:03:22;;;;;;;0.80;0.77;;;25.50;92.20;;;;;;5055253;28;20439;-57
2021/07/06 12:05:56;;;;;;;2.13;1.30;;;25.40;92.90;;;;;;5048001;28;20439;-57
2021/07/06 12:08:27;;;;;;;2.37;1.20;;;25.30;93.20;;;;;;5053310;28;20464;-57
2021/07/06 12:11:04;;;;;;;0.90;0.73;;;25.20;93.20;;;;;;5060618;28;20439;-58
2021/07/06 12:13:34;;;;;;;1.20;0.90;;;25.20;93.10;;;;;;5064893;28;20504;-59
2021/07/06 12:16:03;;;;;;;1.10;0.80;;;25.50;93.10;;;;;;5055775;28;20511;-57
2021/07/06 12:18:33;;;;;;;1.00;0.87;;;25.60;92.60;;;;;;5057501;28;20479;-58
2021/07/06 12:21:05;;;;;;;1.17;1.07;;;25.60;92.30;;;;;;5058925;28;20441;-56
2021/07/06 12:23:31;;;;;;;0.97;0.87;;;25.70;92.00;;;;;;5063201;28;20459;-59
2021/07/06 12:25:59;;;;;;;0.97;0.80;;;25.90;92.20;;;;;;5056401;28;20438;-59
2021/07/06 12:28:26;;;;;;;3.43;1.10;;;26.10;91.40;;;;;;5053782;28;20465;-58
2021/07/06 12:31:16;;;;;;;0.93;0.83;;;26.10;91.60;;;;;;5062003;28;20448;-58
2021/07/06 12:33:57;;;;;;;1.30;1.20;;;26.10;91.40;;;;;;5055276;28;20890;-61
2021/07/06 12:36:47;;;;;;;1.70;1.60;;;25.80;91.60;;;;;;5057030;28;20453;-62
2021/07/06 12:39:26;;;;;;;0.83;0.80;;;25.40;92.20;;;;;;5054676;28;20528;-61
2021/07/06 12:41:56;;;;;;;1.60;1.40;;;25.20;93.00;;;;;;5063173;28;20639;-61
2021/07/06 12:44:35;;;;;;;1.80;1.10;;;25.40;93.40;;;;;;5066576;28;20546;-61
2021/07/06 12:47:27;;;;;;;0.80;0.70;;;25.50;93.30;;;;;;5058352;28;20866;-61
2021/07/06 12:49:56;;;;;;;1.27;1.17;;;25.60;92.90;;;;;;5060980;28;20465;-62
2021/07/06 12:52:43;;;;;;;1.43;0.90;;;25.70;93.20;;;;;;5055540;28;20572;-61
2021/07/06 12:55:14;;;;;;;1.20;1.10;;;25.80;92.90;;;;;;5065021;28;20445;-60